sensor_id;sensor_type;location;lat;lon;timestamp;P1;durP1;ratioP1;P2;durP2;ratioP2
6300;SDS011;3183;51.010;6.898;2023-02-22T00:01:09;156.73;;;27.63;;
6300;SDS011;3183;51.010;6.898;2023-02-22T00:03:49;294.03;;;30.07;;
6300;SDS011;3183;51.010;6.898;2023-02-22T00:06:18;134.17;;;24.03;;
6300;SDS011;3183;51.010;6.898;2023-02-22T00:08:46;134.57;;;27.87;;
6300;SDS011;3183;51.010;6.898;2023-02-22T00:11:15;203.40;;;25.87;;
6300;SDS011;3183;51.010;6.898;2023-02-22T00:13:42;139.37;;;25.80;;
6300;SDS011;3183;51.010;6.898;2023-02-22T00:16:13;134.57;;;26.50;;
6300;SDS011;3183;51.010;6.898;2023-02-22T00:18:41;114.40;;;24.20;;
6300;SDS011;3183;51.010;6.898;2023-02-22T00:21:09;151.03;;;24.93;;
6300;SDS011;3183;51.010;6.898;2023-02-22T00:23:39;144.80;;;23.40;;
6300;SDS011;3183;51.010;6.898;2023-02-22T00:26:10;259.40;;;27.40;;
6300;SDS011;3183;51.010;6.898;2023-02-22T00:28:38;140.30;;;23.90;;
6300;SDS011;3183;51.010;6.898;2023-02-22T00:31:06;131.57;;;23.10;;
6300;SDS011;3183;51.010;6.898;2023-02-22T00:33:37;175.60;;;25.87;;
6300;SDS011;3183;51.010;6.898;2023-02-22T00:36:04;292.17;;;28.93;;
6300;SDS011;3183;51.010;6.898;2023-02-22T00:38:32;120.70;;;24.43;;
6300;SDS011;3183;51.010;6.898;2023-02-22T00:40:59;111.73;;;26.00;;
6300;SDS011;3183;51.010;6.898;2023-02-22T00:43:26;144.47;;;27.60;;
6300;SDS011;3183;51.010;6.898;2023-02-22T00:45:53;143.93;;;24.70;;
6300;SDS011;3183;51.010;6.898;2023-02-22T00:48:21;74.27;;;22.90;;
6300;SDS011;3183;51.010;6.898;2023-02-22T00:50:49;243.10;;;27.50;;
6300;SDS011;3183;51.010;6.898;2023-02-22T00:53:19;125.70;;;24.00;;
6300;SDS011;3183;51.010;6.898;2023-02-22T00:55:46;178.73;;;25.20;;
6300;SDS011;3183;51.010;6.898;2023-02-22T00:58:13;122.73;;;23.03;;
6300;SDS011;3183;51.010;6.898;2023-02-22T01:00:41;137.60;;;25.80;;
6300;SDS011;3183;51.010;6.898;2023-02-22T01:03:10;113.67;;;21.33;;
6300;SDS011;3183;51.010;6.898;2023-02-22T01:05:37;119.83;;;22.20;;
6300;SDS011;3183;51.010;6.898;2023-02-22T01:08:06;168.93;;;20.77;;
6300;SDS011;3183;51.010;6.898;2023-02-22T01:10:34;136.70;;;22.47;;
6300;SDS011;3183;51.010;6.898;2023-02-22T01:13:02;180.60;;;21.80;;
6300;SDS011;3183;51.010;6.898;2023-02-22T01:15:33;88.80;;;21.67;;
6300;SDS011;3183;51.010;6.898;2023-02-22T01:18:00;130.63;;;24.83;;
6300;SDS011;3183;51.010;6.898;2023-02-22T01:20:29;76.93;;;19.87;;
6300;SDS011;3183;51.010;6.898;2023-02-22T01:22:57;143.87;;;22.80;;
6300;SDS011;3183;51.010;6.898;2023-02-22T01:25:27;234.37;;;25.50;;
6300;SDS011;3183;51.010;6.898;2023-02-22T01:27:55;170.30;;;23.47;;
6300;SDS011;3183;51.010;6.898;2023-02-22T01:30:23;100.87;;;21.93;;
6300;SDS011;3183;51.010;6.898;2023-02-22T01:32:50;307.50;;;32.97;;
6300;SDS011;3183;51.010;6.898;2023-02-22T01:35:18;274.87;;;27.83;;
6300;SDS011;3183;51.010;6.898;2023-02-22T01:37:46;116.27;;;24.17;;
6300;SDS011;3183;51.010;6.898;2023-02-22T01:40:14;69.03;;;22.43;;
6300;SDS011;3183;51.010;6.898;2023-02-22T01:42:43;245.13;;;30.47;;
6300;SDS011;3183;51.010;6.898;2023-02-22T01:47:53;330.20;;;30.97;;
6300;SDS011;3183;51.010;6.898;2023-02-22T01:50:20;330.47;;;35.23;;
6300;SDS011;3183;51.010;6.898;2023-02-22T01:52:47;150.23;;;27.37;;
6300;SDS011;3183;51.010;6.898;2023-02-22T01:55:15;94.73;;;23.50;;
6300;SDS011;3183;51.010;6.898;2023-02-22T01:57:44;90.27;;;26.03;;
6300;SDS011;3183;51.010;6.898;2023-02-22T02:00:14;136.37;;;25.57;;
6300;SDS011;3183;51.010;6.898;2023-02-22T02:02:43;128.00;;;24.63;;
6300;SDS011;3183;51.010;6.898;2023-02-22T02:05:12;148.13;;;26.77;;
6300;SDS011;3183;51.010;6.898;2023-02-22T02:07:39;98.37;;;24.70;;
6300;SDS011;3183;51.010;6.898;2023-02-22T02:10:10;112.60;;;24.63;;
6300;SDS011;3183;51.010;6.898;2023-02-22T02:12:38;92.43;;;24.60;;
6300;SDS011;3183;51.010;6.898;2023-02-22T02:15:17;132.63;;;25.67;;
6300;SDS011;3183;51.010;6.898;2023-02-22T02:17:44;200.30;;;26.30;;
6300;SDS011;3183;51.010;6.898;2023-02-22T02:20:12;89.70;;;24.03;;
6300;SDS011;3183;51.010;6.898;2023-02-22T02:22:42;108.97;;;23.30;;
6300;SDS011;3183;51.010;6.898;2023-02-22T02:25:23;137.23;;;25.77;;
6300;SDS011;3183;51.010;6.898;2023-02-22T02:31:00;71.77;;;20.47;;
6300;SDS011;3183;51.010;6.898;2023-02-22T02:33:33;167.43;;;25.80;;
6300;SDS011;3183;51.010;6.898;2023-02-22T02:36:03;141.80;;;23.40;;
6300;SDS011;3183;51.010;6.898;2023-02-22T02:38:37;136.87;;;25.63;;
6300;SDS011;3183;51.010;6.898;2023-02-22T02:41:06;121.40;;;22.80;;
6300;SDS011;3183;51.010;6.898;2023-02-22T02:43:36;83.07;;;22.87;;
6300;SDS011;3183;51.010;6.898;2023-02-22T02:46:05;74.73;;;23.10;;
6300;SDS011;3183;51.010;6.898;2023-02-22T02:48:35;61.37;;;22.33;;
6300;SDS011;3183;51.010;6.898;2023-02-22T02:51:05;71.00;;;23.67;;
6300;SDS011;3183;51.010;6.898;2023-02-22T02:53:35;69.73;;;21.50;;
6300;SDS011;3183;51.010;6.898;2023-02-22T02:56:03;69.20;;;21.60;;
6300;SDS011;3183;51.010;6.898;2023-02-22T02:58:30;57.67;;;20.57;;
6300;SDS011;3183;51.010;6.898;2023-02-22T03:00:57;55.53;;;22.27;;
6300;SDS011;3183;51.010;6.898;2023-02-22T03:03:43;87.63;;;23.90;;
6300;SDS011;3183;51.010;6.898;2023-02-22T03:09:04;71.47;;;19.87;;
6300;SDS011;3183;51.010;6.898;2023-02-22T03:11:35;64.00;;;21.40;;
6300;SDS011;3183;51.010;6.898;2023-02-22T03:14:07;68.37;;;22.17;;
6300;SDS011;3183;51.010;6.898;2023-02-22T03:16:39;58.60;;;22.67;;
6300;SDS011;3183;51.010;6.898;2023-02-22T03:19:11;51.90;;;19.53;;
6300;SDS011;3183;51.010;6.898;2023-02-22T03:21:44;48.77;;;20.53;;
6300;SDS011;3183;51.010;6.898;2023-02-22T03:24:14;68.17;;;23.63;;
6300;SDS011;3183;51.010;6.898;2023-02-22T03:26:44;53.17;;;19.53;;
6300;SDS011;3183;51.010;6.898;2023-02-22T03:29:12;56.33;;;22.50;;
6300;SDS011;3183;51.010;6.898;2023-02-22T03:31:41;55.07;;;20.53;;
6300;SDS011;3183;51.010;6.898;2023-02-22T03:34:14;58.80;;;21.17;;
6300;SDS011;3183;51.010;6.898;2023-02-22T03:36:43;51.87;;;21.87;;
6300;SDS011;3183;51.010;6.898;2023-02-22T03:39:13;51.23;;;20.33;;
6300;SDS011;3183;51.010;6.898;2023-02-22T03:41:42;50.20;;;20.30;;
6300;SDS011;3183;51.010;6.898;2023-02-22T03:44:12;58.90;;;22.00;;
6300;SDS011;3183;51.010;6.898;2023-02-22T03:46:41;57.23;;;20.23;;
6300;SDS011;3183;51.010;6.898;2023-02-22T03:49:09;54.40;;;23.10;;
6300;SDS011;3183;51.010;6.898;2023-02-22T03:51:40;55.57;;;22.43;;
6300;SDS011;3183;51.010;6.898;2023-02-22T03:54:07;52.23;;;21.10;;
6300;SDS011;3183;51.010;6.898;2023-02-22T03:56:41;53.73;;;21.53;;
6300;SDS011;3183;51.010;6.898;2023-02-22T03:59:11;55.27;;;20.20;;
6300;SDS011;3183;51.010;6.898;2023-02-22T04:01:38;63.37;;;23.70;;
6300;SDS011;3183;51.010;6.898;2023-02-22T04:04:06;61.43;;;22.67;;
6300;SDS011;3183;51.010;6.898;2023-02-22T04:06:33;62.30;;;23.97;;
6300;SDS011;3183;51.010;6.898;2023-02-22T04:09:02;56.30;;;22.13;;
6300;SDS011;3183;51.010;6.898;2023-02-22T04:11:29;51.37;;;22.03;;
6300;SDS011;3183;51.010;6.898;2023-02-22T04:13:56;50.63;;;20.23;;
6300;SDS011;3183;51.010;6.898;2023-02-22T04:16:23;66.53;;;22.53;;
6300;SDS011;3183;51.010;6.898;2023-02-22T04:18:50;57.67;;;22.03;;
6300;SDS011;3183;51.010;6.898;2023-02-22T04:21:17;56.77;;;20.67;;
6300;SDS011;3183;51.010;6.898;2023-02-22T04:23:44;51.30;;;21.17;;
6300;SDS011;3183;51.010;6.898;2023-02-22T04:26:13;56.80;;;21.53;;
6300;SDS011;3183;51.010;6.898;2023-02-22T04:28:40;62.45;;;22.52;;
6300;SDS011;3183;51.010;6.898;2023-02-22T04:31:07;58.07;;;23.77;;
6300;SDS011;3183;51.010;6.898;2023-02-22T04:33:34;57.93;;;22.70;;
6300;SDS011;3183;51.010;6.898;2023-02-22T04:36:01;63.80;;;20.60;;
6300;SDS011;3183;51.010;6.898;2023-02-22T04:38:29;67.20;;;23.17;;
6300;SDS011;3183;51.010;6.898;2023-02-22T04:40:56;62.63;;;24.03;;
6300;SDS011;3183;51.010;6.898;2023-02-22T04:43:24;55.67;;;20.70;;
6300;SDS011;3183;51.010;6.898;2023-02-22T04:45:51;79.27;;;21.37;;
6300;SDS011;3183;51.010;6.898;2023-02-22T04:48:18;84.43;;;22.70;;
6300;SDS011;3183;51.010;6.898;2023-02-22T04:50:45;56.17;;;21.57;;
6300;SDS011;3183;51.010;6.898;2023-02-22T04:53:13;56.57;;;21.27;;
6300;SDS011;3183;51.010;6.898;2023-02-22T04:55:41;76.13;;;22.67;;
6300;SDS011;3183;51.010;6.898;2023-02-22T04:58:08;59.37;;;22.27;;
6300;SDS011;3183;51.010;6.898;2023-02-22T05:00:37;67.60;;;23.20;;
6300;SDS011;3183;51.010;6.898;2023-02-22T05:03:04;64.13;;;22.57;;
6300;SDS011;3183;51.010;6.898;2023-02-22T05:05:31;56.93;;;23.90;;
6300;SDS011;3183;51.010;6.898;2023-02-22T05:07:58;67.50;;;22.40;;
6300;SDS011;3183;51.010;6.898;2023-02-22T05:10:25;75.93;;;24.03;;
6300;SDS011;3183;51.010;6.898;2023-02-22T05:12:53;53.90;;;22.80;;
6300;SDS011;3183;51.010;6.898;2023-02-22T05:15:20;73.63;;;22.83;;
6300;SDS011;3183;51.010;6.898;2023-02-22T05:17:50;73.60;;;21.93;;
6300;SDS011;3183;51.010;6.898;2023-02-22T05:20:21;112.90;;;23.33;;
6300;SDS011;3183;51.010;6.898;2023-02-22T05:22:48;62.50;;;22.87;;
6300;SDS011;3183;51.010;6.898;2023-02-22T05:25:16;61.10;;;23.33;;
6300;SDS011;3183;51.010;6.898;2023-02-22T05:27:44;55.27;;;21.70;;
6300;SDS011;3183;51.010;6.898;2023-02-22T05:30:15;69.43;;;26.53;;
6300;SDS011;3183;51.010;6.898;2023-02-22T05:32:42;60.43;;;23.47;;
6300;SDS011;3183;51.010;6.898;2023-02-22T05:35:12;66.23;;;23.93;;
6300;SDS011;3183;51.010;6.898;2023-02-22T05:37:39;64.23;;;22.57;;
6300;SDS011;3183;51.010;6.898;2023-02-22T05:40:06;71.73;;;22.33;;
6300;SDS011;3183;51.010;6.898;2023-02-22T05:42:34;61.20;;;23.47;;
6300;SDS011;3183;51.010;6.898;2023-02-22T05:45:01;59.30;;;23.87;;
6300;SDS011;3183;51.010;6.898;2023-02-22T05:47:28;46.83;;;21.10;;
6300;SDS011;3183;51.010;6.898;2023-02-22T05:49:55;44.33;;;20.20;;
6300;SDS011;3183;51.010;6.898;2023-02-22T05:52:24;45.87;;;19.20;;
6300;SDS011;3183;51.010;6.898;2023-02-22T05:54:51;40.40;;;19.23;;
6300;SDS011;3183;51.010;6.898;2023-02-22T05:57:18;42.47;;;17.10;;
6300;SDS011;3183;51.010;6.898;2023-02-22T05:59:46;37.37;;;18.00;;
6300;SDS011;3183;51.010;6.898;2023-02-22T06:02:13;43.73;;;18.37;;
6300;SDS011;3183;51.010;6.898;2023-02-22T06:04:42;40.20;;;18.57;;
6300;SDS011;3183;51.010;6.898;2023-02-22T06:07:10;38.90;;;18.27;;
6300;SDS011;3183;51.010;6.898;2023-02-22T06:09:38;39.03;;;18.37;;
6300;SDS011;3183;51.010;6.898;2023-02-22T06:12:06;41.07;;;18.00;;
6300;SDS011;3183;51.010;6.898;2023-02-22T06:14:41;36.53;;;17.43;;
6300;SDS011;3183;51.010;6.898;2023-02-22T06:17:10;42.13;;;20.33;;
6300;SDS011;3183;51.010;6.898;2023-02-22T06:19:37;41.33;;;19.10;;
6300;SDS011;3183;51.010;6.898;2023-02-22T06:22:05;41.20;;;18.87;;
6300;SDS011;3183;51.010;6.898;2023-02-22T06:24:32;33.80;;;16.63;;
6300;SDS011;3183;51.010;6.898;2023-02-22T06:27:01;42.93;;;18.60;;
6300;SDS011;3183;51.010;6.898;2023-02-22T06:29:28;43.27;;;18.33;;
6300;SDS011;3183;51.010;6.898;2023-02-22T06:31:55;39.97;;;18.83;;
6300;SDS011;3183;51.010;6.898;2023-02-22T06:34:22;37.10;;;18.97;;
6300;SDS011;3183;51.010;6.898;2023-02-22T06:36:49;40.50;;;18.17;;
6300;SDS011;3183;51.010;6.898;2023-02-22T06:39:16;44.27;;;22.50;;
6300;SDS011;3183;51.010;6.898;2023-02-22T06:41:44;40.07;;;20.33;;
6300;SDS011;3183;51.010;6.898;2023-02-22T06:44:13;40.93;;;19.33;;
6300;SDS011;3183;51.010;6.898;2023-02-22T06:46:45;43.30;;;18.60;;
6300;SDS011;3183;51.010;6.898;2023-02-22T06:49:12;36.00;;;19.50;;
6300;SDS011;3183;51.010;6.898;2023-02-22T06:51:39;46.10;;;18.37;;
6300;SDS011;3183;51.010;6.898;2023-02-22T06:54:06;37.30;;;18.50;;
6300;SDS011;3183;51.010;6.898;2023-02-22T06:56:33;40.87;;;18.40;;
6300;SDS011;3183;51.010;6.898;2023-02-22T06:59:01;43.23;;;20.63;;
6300;SDS011;3183;51.010;6.898;2023-02-22T07:01:29;46.17;;;19.43;;
6300;SDS011;3183;51.010;6.898;2023-02-22T07:03:56;43.90;;;19.57;;
6300;SDS011;3183;51.010;6.898;2023-02-22T07:06:24;39.73;;;18.27;;
6300;SDS011;3183;51.010;6.898;2023-02-22T07:08:51;41.80;;;20.53;;
6300;SDS011;3183;51.010;6.898;2023-02-22T07:11:18;39.00;;;18.40;;
6300;SDS011;3183;51.010;6.898;2023-02-22T07:13:45;41.07;;;20.00;;
6300;SDS011;3183;51.010;6.898;2023-02-22T07:16:13;41.27;;;18.87;;
6300;SDS011;3183;51.010;6.898;2023-02-22T07:18:41;38.50;;;18.60;;
6300;SDS011;3183;51.010;6.898;2023-02-22T07:21:08;43.97;;;21.43;;
6300;SDS011;3183;51.010;6.898;2023-02-22T07:23:36;42.57;;;19.60;;
6300;SDS011;3183;51.010;6.898;2023-02-22T07:26:04;45.53;;;21.03;;
6300;SDS011;3183;51.010;6.898;2023-02-22T07:28:31;36.60;;;19.63;;
6300;SDS011;3183;51.010;6.898;2023-02-22T07:30:58;41.23;;;20.27;;
6300;SDS011;3183;51.010;6.898;2023-02-22T07:33:25;49.40;;;20.43;;
6300;SDS011;3183;51.010;6.898;2023-02-22T07:35:54;39.87;;;20.33;;
6300;SDS011;3183;51.010;6.898;2023-02-22T07:38:21;39.73;;;20.50;;
6300;SDS011;3183;51.010;6.898;2023-02-22T07:40:48;42.90;;;20.70;;
6300;SDS011;3183;51.010;6.898;2023-02-22T07:43:16;43.10;;;20.77;;
6300;SDS011;3183;51.010;6.898;2023-02-22T07:45:44;40.47;;;18.50;;
6300;SDS011;3183;51.010;6.898;2023-02-22T07:48:11;36.67;;;20.07;;
6300;SDS011;3183;51.010;6.898;2023-02-22T07:50:39;47.63;;;22.07;;
6300;SDS011;3183;51.010;6.898;2023-02-22T07:53:09;38.73;;;18.73;;
6300;SDS011;3183;51.010;6.898;2023-02-22T07:55:37;42.30;;;20.43;;
6300;SDS011;3183;51.010;6.898;2023-02-22T07:58:06;44.90;;;19.83;;
6300;SDS011;3183;51.010;6.898;2023-02-22T08:00:35;41.20;;;20.20;;
6300;SDS011;3183;51.010;6.898;2023-02-22T08:03:04;34.57;;;17.53;;
6300;SDS011;3183;51.010;6.898;2023-02-22T08:05:32;31.97;;;14.90;;
6300;SDS011;3183;51.010;6.898;2023-02-22T08:07:59;28.73;;;16.30;;
6300;SDS011;3183;51.010;6.898;2023-02-22T08:10:28;29.80;;;15.87;;
6300;SDS011;3183;51.010;6.898;2023-02-22T08:12:55;29.97;;;14.90;;
6300;SDS011;3183;51.010;6.898;2023-02-22T08:15:24;24.47;;;13.60;;
6300;SDS011;3183;51.010;6.898;2023-02-22T08:17:52;23.70;;;14.13;;
6300;SDS011;3183;51.010;6.898;2023-02-22T08:20:19;23.33;;;12.97;;
6300;SDS011;3183;51.010;6.898;2023-02-22T08:22:47;29.47;;;12.70;;
6300;SDS011;3183;51.010;6.898;2023-02-22T08:25:14;22.30;;;12.80;;
6300;SDS011;3183;51.010;6.898;2023-02-22T08:27:43;27.37;;;13.70;;
6300;SDS011;3183;51.010;6.898;2023-02-22T08:30:12;30.23;;;14.80;;
6300;SDS011;3183;51.010;6.898;2023-02-22T08:32:40;26.63;;;13.20;;
6300;SDS011;3183;51.010;6.898;2023-02-22T08:35:07;22.37;;;14.23;;
6300;SDS011;3183;51.010;6.898;2023-02-22T08:37:34;30.53;;;13.53;;
6300;SDS011;3183;51.010;6.898;2023-02-22T08:40:11;24.77;;;13.30;;
6300;SDS011;3183;51.010;6.898;2023-02-22T08:42:38;25.70;;;13.73;;
6300;SDS011;3183;51.010;6.898;2023-02-22T08:45:08;25.27;;;12.43;;
6300;SDS011;3183;51.010;6.898;2023-02-22T08:47:35;26.37;;;14.60;;
6300;SDS011;3183;51.010;6.898;2023-02-22T08:50:03;27.07;;;13.90;;
6300;SDS011;3183;51.010;6.898;2023-02-22T08:52:30;28.17;;;14.83;;
6300;SDS011;3183;51.010;6.898;2023-02-22T08:54:57;28.10;;;13.67;;
6300;SDS011;3183;51.010;6.898;2023-02-22T08:57:27;29.13;;;14.57;;
6300;SDS011;3183;51.010;6.898;2023-02-22T08:59:55;28.20;;;14.20;;
6300;SDS011;3183;51.010;6.898;2023-02-22T09:02:24;26.47;;;13.80;;
6300;SDS011;3183;51.010;6.898;2023-02-22T09:04:51;29.67;;;14.37;;
6300;SDS011;3183;51.010;6.898;2023-02-22T09:07:18;27.53;;;13.10;;
6300;SDS011;3183;51.010;6.898;2023-02-22T09:09:45;26.20;;;13.50;;
6300;SDS011;3183;51.010;6.898;2023-02-22T09:12:13;25.47;;;14.10;;
6300;SDS011;3183;51.010;6.898;2023-02-22T09:14:41;25.10;;;13.80;;
6300;SDS011;3183;51.010;6.898;2023-02-22T09:17:08;27.63;;;14.63;;
6300;SDS011;3183;51.010;6.898;2023-02-22T09:19:37;30.67;;;14.80;;
6300;SDS011;3183;51.010;6.898;2023-02-22T09:22:04;24.27;;;13.13;;
6300;SDS011;3183;51.010;6.898;2023-02-22T09:24:31;27.23;;;13.80;;
6300;SDS011;3183;51.010;6.898;2023-02-22T09:26:58;23.30;;;12.77;;
6300;SDS011;3183;51.010;6.898;2023-02-22T09:29:28;24.50;;;12.77;;
6300;SDS011;3183;51.010;6.898;2023-02-22T09:31:55;23.17;;;12.57;;
6300;SDS011;3183;51.010;6.898;2023-02-22T09:34:23;22.00;;;13.10;;
6300;SDS011;3183;51.010;6.898;2023-02-22T09:36:55;22.20;;;13.03;;
6300;SDS011;3183;51.010;6.898;2023-02-22T09:39:22;23.10;;;12.47;;
6300;SDS011;3183;51.010;6.898;2023-02-22T09:41:50;22.37;;;12.77;;
6300;SDS011;3183;51.010;6.898;2023-02-22T09:44:21;23.97;;;12.63;;
6300;SDS011;3183;51.010;6.898;2023-02-22T09:46:50;25.00;;;11.53;;
6300;SDS011;3183;51.010;6.898;2023-02-22T09:49:20;29.43;;;11.93;;
6300;SDS011;3183;51.010;6.898;2023-02-22T09:51:54;26.00;;;12.70;;
6300;SDS011;3183;51.010;6.898;2023-02-22T09:54:27;25.07;;;11.93;;
6300;SDS011;3183;51.010;6.898;2023-02-22T09:56:58;19.30;;;11.60;;
6300;SDS011;3183;51.010;6.898;2023-02-22T09:59:28;18.43;;;11.70;;
6300;SDS011;3183;51.010;6.898;2023-02-22T10:01:58;20.23;;;12.03;;
6300;SDS011;3183;51.010;6.898;2023-02-22T10:04:29;21.20;;;11.40;;
6300;SDS011;3183;51.010;6.898;2023-02-22T10:07:02;23.43;;;12.07;;
6300;SDS011;3183;51.010;6.898;2023-02-22T10:09:33;20.77;;;11.63;;
6300;SDS011;3183;51.010;6.898;2023-02-22T10:12:02;18.77;;;11.50;;
6300;SDS011;3183;51.010;6.898;2023-02-22T10:14:43;22.07;;;11.00;;
6300;SDS011;3183;51.010;6.898;2023-02-22T10:17:14;25.70;;;12.17;;
6300;SDS011;3183;51.010;6.898;2023-02-22T10:19:48;23.30;;;11.40;;
6300;SDS011;3183;51.010;6.898;2023-02-22T10:22:24;20.33;;;11.00;;
6300;SDS011;3183;51.010;6.898;2023-02-22T10:24:57;23.03;;;13.17;;
6300;SDS011;3183;51.010;6.898;2023-02-22T10:27:27;21.90;;;12.40;;
6300;SDS011;3183;51.010;6.898;2023-02-22T10:29:57;24.40;;;13.37;;
6300;SDS011;3183;51.010;6.898;2023-02-22T10:32:27;24.73;;;13.77;;
6300;SDS011;3183;51.010;6.898;2023-02-22T10:34:55;20.83;;;12.40;;
6300;SDS011;3183;51.010;6.898;2023-02-22T10:37:25;18.30;;;11.20;;
6300;SDS011;3183;51.010;6.898;2023-02-22T10:39:54;19.13;;;10.77;;
6300;SDS011;3183;51.010;6.898;2023-02-22T10:42:25;20.03;;;10.40;;
6300;SDS011;3183;51.010;6.898;2023-02-22T10:44:53;21.50;;;11.13;;
6300;SDS011;3183;51.010;6.898;2023-02-22T10:47:20;20.93;;;10.90;;
6300;SDS011;3183;51.010;6.898;2023-02-22T10:49:50;19.70;;;10.70;;
6300;SDS011;3183;51.010;6.898;2023-02-22T10:52:18;19.40;;;11.77;;
6300;SDS011;3183;51.010;6.898;2023-02-22T10:54:48;18.60;;;9.93;;
6300;SDS011;3183;51.010;6.898;2023-02-22T10:57:19;19.03;;;10.80;;
6300;SDS011;3183;51.010;6.898;2023-02-22T10:59:48;19.00;;;11.17;;
6300;SDS011;3183;51.010;6.898;2023-02-22T11:02:17;19.27;;;10.47;;
6300;SDS011;3183;51.010;6.898;2023-02-22T11:04:46;21.87;;;10.70;;
6300;SDS011;3183;51.010;6.898;2023-02-22T11:07:23;20.37;;;10.90;;
6300;SDS011;3183;51.010;6.898;2023-02-22T11:09:51;19.03;;;11.40;;
6300;SDS011;3183;51.010;6.898;2023-02-22T11:12:20;17.37;;;10.20;;
6300;SDS011;3183;51.010;6.898;2023-02-22T11:14:49;26.30;;;11.00;;
6300;SDS011;3183;51.010;6.898;2023-02-22T11:17:17;18.60;;;10.33;;
6300;SDS011;3183;51.010;6.898;2023-02-22T11:19:45;17.47;;;10.20;;
6300;SDS011;3183;51.010;6.898;2023-02-22T11:22:17;17.73;;;9.57;;
6300;SDS011;3183;51.010;6.898;2023-02-22T11:24:46;16.63;;;10.00;;
6300;SDS011;3183;51.010;6.898;2023-02-22T11:27:21;15.10;;;9.60;;
6300;SDS011;3183;51.010;6.898;2023-02-22T11:29:51;16.10;;;9.13;;
6300;SDS011;3183;51.010;6.898;2023-02-22T11:32:18;18.67;;;9.80;;
6300;SDS011;3183;51.010;6.898;2023-02-22T11:34:49;17.47;;;10.70;;
6300;SDS011;3183;51.010;6.898;2023-02-22T11:37:27;16.43;;;9.73;;
6300;SDS011;3183;51.010;6.898;2023-02-22T11:40:05;15.50;;;9.13;;
6300;SDS011;3183;51.010;6.898;2023-02-22T11:42:36;13.83;;;8.87;;
6300;SDS011;3183;51.010;6.898;2023-02-22T11:45:10;15.73;;;8.90;;
6300;SDS011;3183;51.010;6.898;2023-02-22T11:47:45;18.53;;;9.67;;
6300;SDS011;3183;51.010;6.898;2023-02-22T11:52:43;14.37;;;9.00;;
6300;SDS011;3183;51.010;6.898;2023-02-22T11:55:13;17.27;;;9.03;;
6300;SDS011;3183;51.010;6.898;2023-02-22T11:57:48;12.53;;;8.47;;
6300;SDS011;3183;51.010;6.898;2023-02-22T12:00:22;18.17;;;9.20;;
6300;SDS011;3183;51.010;6.898;2023-02-22T12:05:45;19.93;;;7.50;;
6300;SDS011;3183;51.010;6.898;2023-02-22T12:08:24;13.20;;;8.07;;
6300;SDS011;3183;51.010;6.898;2023-02-22T12:10:56;14.20;;;7.83;;
6300;SDS011;3183;51.010;6.898;2023-02-22T12:13:28;14.57;;;7.60;;
6300;SDS011;3183;51.010;6.898;2023-02-22T12:16:01;14.53;;;7.40;;
6300;SDS011;3183;51.010;6.898;2023-02-22T12:18:35;13.00;;;7.53;;
6300;SDS011;3183;51.010;6.898;2023-02-22T12:21:06;15.83;;;7.70;;
6300;SDS011;3183;51.010;6.898;2023-02-22T12:23:37;11.87;;;7.03;;
6300;SDS011;3183;51.010;6.898;2023-02-22T12:26:09;14.60;;;7.40;;
6300;SDS011;3183;51.010;6.898;2023-02-22T12:28:40;15.20;;;6.90;;
6300;SDS011;3183;51.010;6.898;2023-02-22T12:31:17;10.17;;;6.50;;
6300;SDS011;3183;51.010;6.898;2023-02-22T12:33:49;14.30;;;7.60;;
6300;SDS011;3183;51.010;6.898;2023-02-22T12:36:18;13.70;;;7.00;;
6300;SDS011;3183;51.010;6.898;2023-02-22T12:38:47;10.70;;;6.80;;
6300;SDS011;3183;51.010;6.898;2023-02-22T12:41:17;11.67;;;7.23;;
6300;SDS011;3183;51.010;6.898;2023-02-22T12:43:49;12.70;;;6.37;;
6300;SDS011;3183;51.010;6.898;2023-02-22T12:46:19;17.07;;;7.30;;
6300;SDS011;3183;51.010;6.898;2023-02-22T12:48:48;13.00;;;7.90;;
6300;SDS011;3183;51.010;6.898;2023-02-22T12:51:20;14.43;;;7.00;;
6300;SDS011;3183;51.010;6.898;2023-02-22T12:53:52;10.70;;;6.43;;
6300;SDS011;3183;51.010;6.898;2023-02-22T12:56:29;20.37;;;7.23;;
6300;SDS011;3183;51.010;6.898;2023-02-22T12:58:59;12.20;;;7.00;;
6300;SDS011;3183;51.010;6.898;2023-02-22T13:01:31;11.00;;;7.07;;
6300;SDS011;3183;51.010;6.898;2023-02-22T13:04:00;11.50;;;7.23;;
6300;SDS011;3183;51.010;6.898;2023-02-22T13:06:33;11.80;;;6.90;;
6300;SDS011;3183;51.010;6.898;2023-02-22T13:09:07;12.53;;;6.40;;
6300;SDS011;3183;51.010;6.898;2023-02-22T13:11:41;10.37;;;6.53;;
6300;SDS011;3183;51.010;6.898;2023-02-22T13:14:15;12.70;;;7.10;;
6300;SDS011;3183;51.010;6.898;2023-02-22T13:16:49;18.10;;;7.90;;
6300;SDS011;3183;51.010;6.898;2023-02-22T13:19:24;9.03;;;6.17;;
6300;SDS011;3183;51.010;6.898;2023-02-22T13:21:53;12.40;;;6.57;;
6300;SDS011;3183;51.010;6.898;2023-02-22T13:24:22;9.10;;;5.97;;
6300;SDS011;3183;51.010;6.898;2023-02-22T13:26:52;13.73;;;6.90;;
6300;SDS011;3183;51.010;6.898;2023-02-22T13:29:21;13.40;;;6.27;;
6300;SDS011;3183;51.010;6.898;2023-02-22T13:32:12;9.63;;;6.10;;
6300;SDS011;3183;51.010;6.898;2023-02-22T13:34:53;9.40;;;5.50;;
6300;SDS011;3183;51.010;6.898;2023-02-22T13:37:29;16.80;;;6.20;;
6300;SDS011;3183;51.010;6.898;2023-02-22T13:40:03;17.40;;;6.87;;
6300;SDS011;3183;51.010;6.898;2023-02-22T13:51:02;13.50;;;6.93;;
6300;SDS011;3183;51.010;6.898;2023-02-22T13:53:31;18.70;;;6.57;;
6300;SDS011;3183;51.010;6.898;2023-02-22T13:56:03;11.53;;;6.60;;
6300;SDS011;3183;51.010;6.898;2023-02-22T13:58:31;13.03;;;6.33;;
6300;SDS011;3183;51.010;6.898;2023-02-22T14:00:58;11.40;;;6.33;;
6300;SDS011;3183;51.010;6.898;2023-02-22T14:03:30;16.13;;;6.40;;
6300;SDS011;3183;51.010;6.898;2023-02-22T14:06:01;11.47;;;7.00;;
6300;SDS011;3183;51.010;6.898;2023-02-22T14:08:47;11.50;;;6.20;;
6300;SDS011;3183;51.010;6.898;2023-02-22T14:14:18;11.50;;;7.10;;
6300;SDS011;3183;51.010;6.898;2023-02-22T14:19:31;22.83;;;7.00;;
6300;SDS011;3183;51.010;6.898;2023-02-22T14:22:00;11.13;;;7.30;;
6300;SDS011;3183;51.010;6.898;2023-02-22T14:24:28;9.23;;;6.27;;
6300;SDS011;3183;51.010;6.898;2023-02-22T14:26:59;11.80;;;7.30;;
6300;SDS011;3183;51.010;6.898;2023-02-22T14:29:27;13.70;;;6.67;;
6300;SDS011;3183;51.010;6.898;2023-02-22T14:32:02;11.50;;;6.10;;
6300;SDS011;3183;51.010;6.898;2023-02-22T14:34:39;15.07;;;6.90;;
6300;SDS011;3183;51.010;6.898;2023-02-22T14:37:10;15.43;;;6.80;;
6300;SDS011;3183;51.010;6.898;2023-02-22T14:39:39;14.93;;;7.20;;
6300;SDS011;3183;51.010;6.898;2023-02-22T14:42:09;11.23;;;6.20;;
6300;SDS011;3183;51.010;6.898;2023-02-22T14:44:39;10.90;;;6.53;;
6300;SDS011;3183;51.010;6.898;2023-02-22T14:47:08;13.00;;;7.17;;
6300;SDS011;3183;51.010;6.898;2023-02-22T14:49:41;9.40;;;6.50;;
6300;SDS011;3183;51.010;6.898;2023-02-22T14:52:16;13.03;;;6.83;;
6300;SDS011;3183;51.010;6.898;2023-02-22T14:54:50;11.40;;;6.77;;
6300;SDS011;3183;51.010;6.898;2023-02-22T14:57:19;14.13;;;6.23;;
6300;SDS011;3183;51.010;6.898;2023-02-22T15:02:43;11.20;;;6.87;;
6300;SDS011;3183;51.010;6.898;2023-02-22T15:05:11;9.90;;;7.10;;
6300;SDS011;3183;51.010;6.898;2023-02-22T15:07:48;14.60;;;7.00;;
6300;SDS011;3183;51.010;6.898;2023-02-22T15:10:17;15.90;;;6.63;;
6300;SDS011;3183;51.010;6.898;2023-02-22T15:12:52;12.17;;;7.10;;
6300;SDS011;3183;51.010;6.898;2023-02-22T15:15:32;17.00;;;7.33;;
6300;SDS011;3183;51.010;6.898;2023-02-22T15:18:00;11.70;;;7.10;;
6300;SDS011;3183;51.010;6.898;2023-02-22T15:20:30;11.07;;;6.67;;
6300;SDS011;3183;51.010;6.898;2023-02-22T15:23:00;20.33;;;7.53;;
6300;SDS011;3183;51.010;6.898;2023-02-22T15:25:28;10.13;;;6.43;;
6300;SDS011;3183;51.010;6.898;2023-02-22T15:28:00;10.23;;;7.33;;
6300;SDS011;3183;51.010;6.898;2023-02-22T15:30:28;14.10;;;7.03;;
6300;SDS011;3183;51.010;6.898;2023-02-22T15:33:08;13.00;;;6.93;;
6300;SDS011;3183;51.010;6.898;2023-02-22T15:35:36;13.10;;;6.93;;